sensor_id;sensor_type;location;lat;lon;timestamp;P1;durP1;ratioP1;P2;durP2;ratioP2
35562;SDS011;21665;40.108;18.302;2022-10-19T00:31:02;93.78;;;44.13;;
35562;SDS011;21665;40.108;18.302;2022-10-19T00:33:30;91.78;;;42.63;;
35562;SDS011;21665;40.108;18.302;2022-10-19T00:35:58;85.95;;;41.90;;
35562;SDS011;21665;40.108;18.302;2022-10-19T00:38:25;91.72;;;42.72;;
35562;SDS011;21665;40.108;18.302;2022-10-19T00:40:52;100.45;;;45.70;;
35562;SDS011;21665;40.108;18.302;2022-10-19T00:43:20;85.97;;;42.70;;
35562;SDS011;21665;40.108;18.302;2022-10-19T00:45:49;100.50;;;44.42;;
35562;SDS011;21665;40.108;18.302;2022-10-19T00:48:29;93.88;;;45.45;;
35562;SDS011;21665;40.108;18.302;2022-10-19T00:50:58;93.95;;;44.33;;
35562;SDS011;21665;40.108;18.302;2022-10-19T00:53:26;96.45;;;43.10;;
35562;SDS011;21665;40.108;18.302;2022-10-19T00:55:56;110.45;;;49.15;;
35562;SDS011;21665;40.108;18.302;2022-10-19T00:58:27;90.82;;;42.72;;
35562;SDS011;21665;40.108;18.302;2022-10-19T01:01:14;102.90;;;45.80;;
35562;SDS011;21665;40.108;18.302;2022-10-19T01:03:44;114.07;;;48.33;;
35562;SDS011;21665;40.108;18.302;2022-10-19T01:06:12;118.82;;;52.47;;
35562;SDS011;21665;40.108;18.302;2022-10-19T01:08:45;112.63;;;49.20;;
35562;SDS011;21665;40.108;18.302;2022-10-19T01:17:49;117.90;;;49.72;;
35562;SDS011;21665;40.108;18.302;2022-10-19T01:35:04;120.53;;;51.97;;
35562;SDS011;21665;40.108;18.302;2022-10-19T01:38:13;120.75;;;52.03;;
35562;SDS011;21665;40.108;18.302;2022-10-19T01:43:35;126.10;;;52.70;;
35562;SDS011;21665;40.108;18.302;2022-10-19T01:46:16;116.45;;;51.03;;
35562;SDS011;21665;40.108;18.302;2022-10-19T01:51:59;125.70;;;53.08;;
35562;SDS011;21665;40.108;18.302;2022-10-19T01:54:33;127.30;;;53.13;;
35562;SDS011;21665;40.108;18.302;2022-10-19T01:57:05;129.60;;;54.50;;
35562;SDS011;21665;40.108;18.302;2022-10-19T01:59:39;123.75;;;53.08;;
35562;SDS011;21665;40.108;18.302;2022-10-19T02:02:07;133.20;;;55.70;;
35562;SDS011;21665;40.108;18.302;2022-10-19T02:04:35;129.13;;;52.40;;
35562;SDS011;21665;40.108;18.302;2022-10-19T02:07:04;137.05;;;58.20;;
35562;SDS011;21665;40.108;18.302;2022-10-19T02:09:33;128.93;;;54.92;;
35562;SDS011;21665;40.108;18.302;2022-10-19T02:12:01;135.18;;;56.33;;
35562;SDS011;21665;40.108;18.302;2022-10-19T02:14:34;142.60;;;58.78;;
35562;SDS011;21665;40.108;18.302;2022-10-19T02:17:07;133.02;;;56.85;;
35562;SDS011;21665;40.108;18.302;2022-10-19T02:19:56;134.00;;;55.55;;
35562;SDS011;21665;40.108;18.302;2022-10-19T02:22:24;141.73;;;58.95;;
35562;SDS011;21665;40.108;18.302;2022-10-19T02:24:51;133.10;;;57.17;;
35562;SDS011;21665;40.108;18.302;2022-10-19T02:27:18;122.75;;;54.17;;
35562;SDS011;21665;40.108;18.302;2022-10-19T02:29:44;129.90;;;55.85;;
35562;SDS011;21665;40.108;18.302;2022-10-19T02:32:11;126.95;;;54.65;;
35562;SDS011;21665;40.108;18.302;2022-10-19T02:34:39;118.45;;;52.67;;
35562;SDS011;21665;40.108;18.302;2022-10-19T02:37:06;122.15;;;51.60;;
35562;SDS011;21665;40.108;18.302;2022-10-19T02:39:36;117.57;;;52.67;;
35562;SDS011;21665;40.108;18.302;2022-10-19T02:42:06;115.57;;;48.88;;
35562;SDS011;21665;40.108;18.302;2022-10-19T02:47:19;110.35;;;52.30;;
35562;SDS011;21665;40.108;18.302;2022-10-19T02:50:08;106.50;;;47.30;;
35562;SDS011;21665;40.108;18.302;2022-10-19T02:52:37;109.45;;;50.28;;
35562;SDS011;21665;40.108;18.302;2022-10-19T02:55:06;110.30;;;50.13;;
35562;SDS011;21665;40.108;18.302;2022-10-19T02:57:33;107.43;;;49.67;;
35562;SDS011;21665;40.108;18.302;2022-10-19T03:00:00;108.00;;;47.50;;
35562;SDS011;21665;40.108;18.302;2022-10-19T03:06:06;99.68;;;46.63;;
35562;SDS011;21665;40.108;18.302;2022-10-19T03:09:26;107.10;;;46.13;;
35562;SDS011;21665;40.108;18.302;2022-10-19T03:11:56;115.32;;;48.83;;
35562;SDS011;21665;40.108;18.302;2022-10-19T03:14:34;101.90;;;48.25;;
35562;SDS011;21665;40.108;18.302;2022-10-19T03:17:03;100.68;;;45.72;;
35562;SDS011;21665;40.108;18.302;2022-10-19T03:19:29;105.18;;;48.95;;
35562;SDS011;21665;40.108;18.302;2022-10-19T03:21:57;108.95;;;48.50;;
35562;SDS011;21665;40.108;18.302;2022-10-19T03:24:24;111.97;;;49.47;;
35562;SDS011;21665;40.108;18.302;2022-10-19T03:26:50;114.32;;;51.85;;
35562;SDS011;21665;40.108;18.302;2022-10-19T03:29:17;113.32;;;49.65;;
35562;SDS011;21665;40.108;18.302;2022-10-19T03:31:43;110.78;;;50.95;;
35562;SDS011;21665;40.108;18.302;2022-10-19T03:34:10;110.88;;;49.90;;
35562;SDS011;21665;40.108;18.302;2022-10-19T03:36:37;117.25;;;52.17;;
35562;SDS011;21665;40.108;18.302;2022-10-19T03:39:11;110.53;;;48.70;;
35562;SDS011;21665;40.108;18.302;2022-10-19T03:41:40;119.53;;;51.67;;
35562;SDS011;21665;40.108;18.302;2022-10-19T03:44:07;128.60;;;52.63;;
35562;SDS011;21665;40.108;18.302;2022-10-19T03:46:35;125.65;;;52.83;;
35562;SDS011;21665;40.108;18.302;2022-10-19T03:49:03;130.80;;;53.13;;
35562;SDS011;21665;40.108;18.302;2022-10-19T03:51:30;128.98;;;53.03;;
35562;SDS011;21665;40.108;18.302;2022-10-19T03:54:02;118.93;;;51.75;;
35562;SDS011;21665;40.108;18.302;2022-10-19T03:56:31;123.23;;;52.93;;
35562;SDS011;21665;40.108;18.302;2022-10-19T03:58:59;119.25;;;51.53;;
35562;SDS011;21665;40.108;18.302;2022-10-19T04:01:29;130.27;;;52.28;;
35562;SDS011;21665;40.108;18.302;2022-10-19T04:04:15;140.20;;;55.25;;
35562;SDS011;21665;40.108;18.302;2022-10-19T04:06:43;143.02;;;55.88;;
35562;SDS011;21665;40.108;18.302;2022-10-19T04:13:19;135.93;;;55.08;;
35562;SDS011;21665;40.108;18.302;2022-10-19T04:15:45;138.50;;;54.78;;
35562;SDS011;21665;40.108;18.302;2022-10-19T04:24:45;162.50;;;59.03;;
35562;SDS011;21665;40.108;18.302;2022-10-19T04:27:27;157.57;;;57.95;;
35562;SDS011;21665;40.108;18.302;2022-10-19T04:29:54;168.60;;;61.17;;
35562;SDS011;21665;40.108;18.302;2022-10-19T04:49:36;204.60;;;66.60;;
35562;SDS011;21665;40.108;18.302;2022-10-19T04:56:03;181.32;;;63.88;;
35562;SDS011;21665;40.108;18.302;2022-10-19T05:05:19;257.20;;;66.78;;
35562;SDS011;21665;40.108;18.302;2022-10-19T05:07:47;206.60;;;63.58;;
35562;SDS011;21665;40.108;18.302;2022-10-19T05:10:14;183.35;;;60.05;;
35562;SDS011;21665;40.108;18.302;2022-10-19T05:12:44;177.40;;;60.33;;
35562;SDS011;21665;40.108;18.302;2022-10-19T05:15:13;161.70;;;59.42;;
35562;SDS011;21665;40.108;18.302;2022-10-19T05:21:48;140.77;;;55.13;;
35562;SDS011;21665;40.108;18.302;2022-10-19T05:24:15;145.50;;;53.88;;
35562;SDS011;21665;40.108;18.302;2022-10-19T05:26:41;134.15;;;53.30;;
35562;SDS011;21665;40.108;18.302;2022-10-19T05:29:21;120.70;;;49.40;;
35562;SDS011;21665;40.108;18.302;2022-10-19T05:32:01;119.40;;;50.42;;
35562;SDS011;21665;40.108;18.302;2022-10-19T05:35:22;130.88;;;51.50;;
35562;SDS011;21665;40.108;18.302;2022-10-19T05:37:59;104.78;;;46.67;;
35562;SDS011;21665;40.108;18.302;2022-10-19T05:40:26;122.28;;;51.33;;
35562;SDS011;21665;40.108;18.302;2022-10-19T05:42:55;109.70;;;47.75;;
35562;SDS011;21665;40.108;18.302;2022-10-19T05:45:24;95.22;;;43.10;;
35562;SDS011;21665;40.108;18.302;2022-10-19T05:47:53;91.85;;;43.45;;
35562;SDS011;21665;40.108;18.302;2022-10-19T05:50:20;79.03;;;42.30;;
35562;SDS011;21665;40.108;18.302;2022-10-19T05:55:34;63.70;;;36.55;;
35562;SDS011;21665;40.108;18.302;2022-10-19T05:58:09;74.78;;;39.47;;
35562;SDS011;21665;40.108;18.302;2022-10-19T06:05:07;64.18;;;36.03;;
35562;SDS011;21665;40.108;18.302;2022-10-19T06:10:37;50.40;;;31.27;;
35562;SDS011;21665;40.108;18.302;2022-10-19T06:13:03;43.97;;;30.65;;
35562;SDS011;21665;40.108;18.302;2022-10-19T06:15:34;49.08;;;32.58;;
35562;SDS011;21665;40.108;18.302;2022-10-19T06:18:11;54.38;;;34.08;;
35562;SDS011;21665;40.108;18.302;2022-10-19T06:20:41;52.35;;;36.35;;
35562;SDS011;21665;40.108;18.302;2022-10-19T06:23:20;51.85;;;36.55;;
35562;SDS011;21665;40.108;18.302;2022-10-19T06:25:55;54.45;;;36.55;;
35562;SDS011;21665;40.108;18.302;2022-10-19T06:28:25;59.47;;;39.10;;
35562;SDS011;21665;40.108;18.302;2022-10-19T06:30:51;54.22;;;38.50;;
35562;SDS011;21665;40.108;18.302;2022-10-19T06:33:18;61.08;;;38.80;;
35562;SDS011;21665;40.108;18.302;2022-10-19T06:35:44;58.60;;;40.03;;
35562;SDS011;21665;40.108;18.302;2022-10-19T06:38:15;65.60;;;40.72;;
35562;SDS011;21665;40.108;18.302;2022-10-19T06:40:41;56.33;;;39.03;;
35562;SDS011;21665;40.108;18.302;2022-10-19T06:43:08;58.95;;;38.45;;
35562;SDS011;21665;40.108;18.302;2022-10-19T06:45:38;60.60;;;39.53;;
35562;SDS011;21665;40.108;18.302;2022-10-19T06:48:05;58.97;;;41.45;;
35562;SDS011;21665;40.108;18.302;2022-10-19T06:50:31;58.40;;;40.90;;
35562;SDS011;21665;40.108;18.302;2022-10-19T06:56:05;56.55;;;39.28;;
35562;SDS011;21665;40.108;18.302;2022-10-19T06:58:35;62.20;;;41.10;;
35562;SDS011;21665;40.108;18.302;2022-10-19T07:01:03;55.17;;;37.42;;
35562;SDS011;21665;40.108;18.302;2022-10-19T07:03:32;56.25;;;36.42;;
35562;SDS011;21665;40.108;18.302;2022-10-19T07:06:00;60.95;;;36.50;;
35562;SDS011;21665;40.108;18.302;2022-10-19T07:08:30;58.47;;;36.22;;
35562;SDS011;21665;40.108;18.302;2022-10-19T07:10:58;59.65;;;35.50;;
35562;SDS011;21665;40.108;18.302;2022-10-19T07:13:26;57.58;;;36.53;;
35562;SDS011;21665;40.108;18.302;2022-10-19T07:15:57;56.97;;;35.05;;
35562;SDS011;21665;40.108;18.302;2022-10-19T07:18:28;60.75;;;35.10;;
35562;SDS011;21665;40.108;18.302;2022-10-19T07:20:55;53.00;;;34.35;;
35562;SDS011;21665;40.108;18.302;2022-10-19T07:23:24;53.72;;;33.92;;
35562;SDS011;21665;40.108;18.302;2022-10-19T07:25:52;51.05;;;34.83;;
35562;SDS011;21665;40.108;18.302;2022-10-19T07:28:24;59.03;;;35.33;;
35562;SDS011;21665;40.108;18.302;2022-10-19T07:30:51;56.55;;;33.90;;
35562;SDS011;21665;40.108;18.302;2022-10-19T07:33:17;50.47;;;33.97;;
35562;SDS011;21665;40.108;18.302;2022-10-19T07:35:43;51.30;;;34.85;;
35562;SDS011;21665;40.108;18.302;2022-10-19T07:38:10;55.67;;;33.65;;
35562;SDS011;21665;40.108;18.302;2022-10-19T07:40:36;53.15;;;33.10;;
35562;SDS011;21665;40.108;18.302;2022-10-19T07:43:03;47.38;;;33.65;;
35562;SDS011;21665;40.108;18.302;2022-10-19T07:45:31;51.53;;;33.88;;
35562;SDS011;21665;40.108;18.302;2022-10-19T07:47:58;53.47;;;35.47;;
35562;SDS011;21665;40.108;18.302;2022-10-19T07:50:25;57.97;;;34.58;;
35562;SDS011;21665;40.108;18.302;2022-10-19T07:52:52;47.13;;;33.92;;
35562;SDS011;21665;40.108;18.302;2022-10-19T07:55:19;52.78;;;33.33;;
35562;SDS011;21665;40.108;18.302;2022-10-19T07:57:46;49.95;;;31.23;;
35562;SDS011;21665;40.108;18.302;2022-10-19T08:00:17;57.47;;;35.05;;
35562;SDS011;21665;40.108;18.302;2022-10-19T08:02:43;45.17;;;29.58;;
35562;SDS011;21665;40.108;18.302;2022-10-19T08:05:10;42.60;;;28.00;;
35562;SDS011;21665;40.108;18.302;2022-10-19T08:07:36;41.25;;;27.30;;
35562;SDS011;21665;40.108;18.302;2022-10-19T08:10:03;42.13;;;29.38;;
35562;SDS011;21665;40.108;18.302;2022-10-19T08:12:29;37.33;;;26.92;;
35562;SDS011;21665;40.108;18.302;2022-10-19T08:14:56;33.85;;;25.50;;
35562;SDS011;21665;40.108;18.302;2022-10-19T08:17:25;37.78;;;27.70;;
35562;SDS011;21665;40.108;18.302;2022-10-19T08:19:52;39.13;;;26.75;;
35562;SDS011;21665;40.108;18.302;2022-10-19T08:22:18;36.63;;;27.60;;
35562;SDS011;21665;40.108;18.302;2022-10-19T08:24:44;29.70;;;26.08;;
35562;SDS011;21665;40.108;18.302;2022-10-19T08:27:11;35.53;;;25.85;;
35562;SDS011;21665;40.108;18.302;2022-10-19T08:29:39;31.48;;;26.58;;
35562;SDS011;21665;40.108;18.302;2022-10-19T08:32:05;27.40;;;24.50;;
35562;SDS011;21665;40.108;18.302;2022-10-19T08:34:32;34.25;;;26.80;;
35562;SDS011;21665;40.108;18.302;2022-10-19T08:37:00;29.88;;;26.25;;
35562;SDS011;21665;40.108;18.302;2022-10-19T08:39:28;33.47;;;27.52;;
35562;SDS011;21665;40.108;18.302;2022-10-19T08:44:36;28.67;;;25.73;;
35562;SDS011;21665;40.108;18.302;2022-10-19T08:47:26;29.67;;;26.13;;
35562;SDS011;21665;40.108;18.302;2022-10-19T08:49:59;32.03;;;26.80;;
35562;SDS011;21665;40.108;18.302;2022-10-19T08:52:29;35.90;;;26.15;;
35562;SDS011;21665;40.108;18.302;2022-10-19T08:55:06;32.17;;;27.23;;
35562;SDS011;21665;40.108;18.302;2022-10-19T09:00:26;32.38;;;26.48;;
35562;SDS011;21665;40.108;18.302;2022-10-19T09:08:29;29.77;;;26.05;;
35562;SDS011;21665;40.108;18.302;2022-10-19T09:11:03;30.08;;;24.40;;
35562;SDS011;21665;40.108;18.302;2022-10-19T09:13:42;28.65;;;25.58;;
35562;SDS011;21665;40.108;18.302;2022-10-19T09:16:12;30.02;;;26.80;;
35562;SDS011;21665;40.108;18.302;2022-10-19T09:18:40;31.98;;;26.85;;
35562;SDS011;21665;40.108;18.302;2022-10-19T09:26:09;31.25;;;27.25;;
35562;SDS011;21665;40.108;18.302;2022-10-19T09:28:53;28.85;;;25.55;;
35562;SDS011;21665;40.108;18.302;2022-10-19T09:31:40;30.92;;;27.63;;
35562;SDS011;21665;40.108;18.302;2022-10-19T09:34:14;34.30;;;27.30;;
35562;SDS011;21665;40.108;18.302;2022-10-19T09:36:57;29.70;;;25.73;;
35562;SDS011;21665;40.108;18.302;2022-10-19T09:39:28;28.08;;;25.17;;
35562;SDS011;21665;40.108;18.302;2022-10-19T09:41:56;29.30;;;26.17;;
35562;SDS011;21665;40.108;18.302;2022-10-19T09:44:41;29.70;;;26.67;;
35562;SDS011;21665;40.108;18.302;2022-10-19T09:50:07;29.90;;;26.50;;
35562;SDS011;21665;40.108;18.302;2022-10-19T09:52:35;30.77;;;27.50;;
35562;SDS011;21665;40.108;18.302;2022-10-19T09:58:22;31.33;;;25.98;;
35562;SDS011;21665;40.108;18.302;2022-10-19T10:00:35;31.63;;;28.30;;
35562;SDS011;21665;40.108;18.302;2022-10-19T10:03:04;33.92;;;28.23;;
35562;SDS011;21665;40.108;18.302;2022-10-19T10:05:33;31.73;;;26.25;;
35562;SDS011;21665;40.108;18.302;2022-10-19T10:08:01;28.80;;;25.60;;
35562;SDS011;21665;40.108;18.302;2022-10-19T10:10:36;29.00;;;26.10;;
35562;SDS011;21665;40.108;18.302;2022-10-19T10:13:04;28.33;;;25.73;;
35562;SDS011;21665;40.108;18.302;2022-10-19T10:15:50;30.38;;;26.23;;
35562;SDS011;21665;40.108;18.302;2022-10-19T10:18:22;28.17;;;25.30;;
35562;SDS011;21665;40.108;18.302;2022-10-19T10:21:03;33.58;;;26.30;;
35562;SDS011;21665;40.108;18.302;2022-10-19T10:23:38;31.15;;;26.33;;
35562;SDS011;21665;40.108;18.302;2022-10-19T10:26:13;31.10;;;27.17;;
35562;SDS011;21665;40.108;18.302;2022-10-19T10:28:47;32.75;;;26.98;;
35562;SDS011;21665;40.108;18.302;2022-10-19T10:31:25;36.47;;;28.67;;
35562;SDS011;21665;40.108;18.302;2022-10-19T10:33:55;39.20;;;27.42;;
35562;SDS011;21665;40.108;18.302;2022-10-19T10:36:28;33.53;;;27.65;;
35562;SDS011;21665;40.108;18.302;2022-10-19T10:39:00;34.28;;;29.30;;
35562;SDS011;21665;40.108;18.302;2022-10-19T10:41:36;39.65;;;31.85;;
35562;SDS011;21665;40.108;18.302;2022-10-19T10:44:15;37.63;;;29.52;;
35562;SDS011;21665;40.108;18.302;2022-10-19T10:49:22;40.08;;;30.20;;
35562;SDS011;21665;40.108;18.302;2022-10-19T10:52:11;36.00;;;30.33;;
35562;SDS011;21665;40.108;18.302;2022-10-19T10:54:42;40.75;;;29.15;;
35562;SDS011;21665;40.108;18.302;2022-10-19T10:57:29;30.02;;;26.90;;
35562;SDS011;21665;40.108;18.302;2022-10-19T11:02:43;37.70;;;32.03;;
35562;SDS011;21665;40.108;18.302;2022-10-19T11:05:30;38.58;;;29.77;;
35562;SDS011;21665;40.108;18.302;2022-10-19T11:13:44;40.78;;;33.92;;
35562;SDS011;21665;40.108;18.302;2022-10-19T11:16:23;37.10;;;29.10;;
35562;SDS011;21665;40.108;18.302;2022-10-19T11:18:57;35.60;;;29.98;;
35562;SDS011;21665;40.108;18.302;2022-10-19T11:21:47;34.53;;;29.83;;
35562;SDS011;21665;40.108;18.302;2022-10-19T11:25:00;36.35;;;29.20;;
35562;SDS011;21665;40.108;18.302;2022-10-19T11:30:15;37.58;;;30.33;;
35562;SDS011;21665;40.108;18.302;2022-10-19T11:36:17;48.20;;;33.22;;
35562;SDS011;21665;40.108;18.302;2022-10-19T13:39:17;43.38;;;33.05;;
35562;SDS011;21665;40.108;18.302;2022-10-19T14:13:04;43.60;;;33.15;;
35562;SDS011;21665;40.108;18.302;2022-10-19T15:11:28;49.67;;;36.10;;
35562;SDS011;21665;40.108;18.302;2022-10-19T15:17:29;52.17;;;34.88;;
35562;SDS011;21665;40.108;18.302;2022-10-19T15:21:18;53.63;;;37.00;;
35562;SDS011;21665;40.108;18.302;2022-10-19T15:24:15;45.83;;;33.58;;
35562;SDS011;21665;40.108;18.302;2022-10-19T15:31:29;58.38;;;36.85;;
35562;SDS011;21665;40.108;18.302;2022-10-19T15:33:57;49.75;;;32.72;;
35562;SDS011;21665;40.108;18.302;2022-10-19T15:36:26;56.15;;;36.25;;
35562;SDS011;21665;40.108;18.302;2022-10-19T15:39:27;51.95;;;35.17;;
35562;SDS011;21665;40.108;18.302;2022-10-19T15:45:33;53.42;;;35.03;;
35562;SDS011;21665;40.108;18.302;2022-10-19T15:50:50;64.15;;;35.10;;
35562;SDS011;21665;40.108;18.302;2022-10-19T15:53:26;55.60;;;36.33;;
35562;SDS011;21665;40.108;18.302;2022-10-19T15:59:55;61.60;;;36.40;;
35562;SDS011;21665;40.108;18.302;2022-10-19T16:03:02;57.85;;;36.22;;
35562;SDS011;21665;40.108;18.302;2022-10-19T16:12:38;68.53;;;37.20;;
35562;SDS011;21665;40.108;18.302;2022-10-19T16:15:21;67.60;;;38.40;;
35562;SDS011;21665;40.108;18.302;2022-10-19T16:18:32;63.42;;;37.50;;
35562;SDS011;21665;40.108;18.302;2022-10-19T16:20:58;69.25;;;38.30;;
35562;SDS011;21665;40.108;18.302;2022-10-19T16:26:39;66.10;;;35.90;;
35562;SDS011;21665;40.108;18.302;2022-10-19T16:29:06;66.30;;;37.85;;
35562;SDS011;21665;40.108;18.302;2022-10-19T16:31:32;63.78;;;38.50;;
35562;SDS011;21665;40.108;18.302;2022-10-19T16:33:59;74.38;;;39.30;;
35562;SDS011;21665;40.108;18.302;2022-10-19T16:36:28;70.25;;;40.00;;
35562;SDS011;21665;40.108;18.302;2022-10-19T16:39:07;63.85;;;38.42;;
35562;SDS011;21665;40.108;18.302;2022-10-19T16:41:43;70.43;;;39.30;;
35562;SDS011;21665;40.108;18.302;2022-10-19T16:44:16;72.78;;;39.95;;
35562;SDS011;21665;40.108;18.302;2022-10-19T16:46:49;75.45;;;41.85;;
35562;SDS011;21665;40.108;18.302;2022-10-19T16:49:15;85.82;;;43.38;;
35562;SDS011;21665;40.108;18.302;2022-10-19T16:51:42;80.03;;;42.22;;
35562;SDS011;21665;40.108;18.302;2022-10-19T16:54:09;75.78;;;41.63;;
35562;SDS011;21665;40.108;18.302;2022-10-19T16:56:44;76.15;;;41.55;;
35562;SDS011;21665;40.108;18.302;2022-10-19T16:59:16;78.97;;;40.92;;
35562;SDS011;21665;40.108;18.302;2022-10-19T17:01:44;66.35;;;39.28;;
35562;SDS011;21665;40.108;18.302;2022-10-19T17:04:11;72.57;;;41.45;;
35562;SDS011;21665;40.108;18.302;2022-10-19T17:06:43;75.85;;;41.40;;
35562;SDS011;21665;40.108;18.302;2022-10-19T17:09:10;73.32;;;39.78;;
35562;SDS011;21665;40.108;18.302;2022-10-19T17:11:38;74.05;;;41.70;;
35562;SDS011;21665;40.108;18.302;2022-10-19T17:21:13;79.00;;;42.22;;
35562;SDS011;21665;40.108;18.302;2022-10-19T17:31:22;85.90;;;43.05;;
35562;SDS011;21665;40.108;18.302;2022-10-19T17:33:52;79.80;;;42.42;;
35562;SDS011;21665;40.108;18.302;2022-10-19T17:36:20;86.60;;;43.00;;
35562;SDS011;21665;40.108;18.302;2022-10-19T17:38:54;82.57;;;41.95;;
35562;SDS011;21665;40.108;18.302;2022-10-19T17:41:22;90.60;;;42.60;;
35562;SDS011;21665;40.108;18.302;2022-10-19T17:43:51;87.20;;;43.95;;
35562;SDS011;21665;40.108;18.302;2022-10-19T17:46:45;80.30;;;41.10;;
35562;SDS011;21665;40.108;18.302;2022-10-19T17:49:47;83.47;;;44.30;;
35562;SDS011;21665;40.108;18.302;2022-10-19T17:52:19;84.47;;;41.67;;
35562;SDS011;21665;40.108;18.302;2022-10-19T17:57:54;87.45;;;45.10;;
35562;SDS011;21665;40.108;18.302;2022-10-19T18:00:42;86.80;;;43.65;;
35562;SDS011;21665;40.108;18.302;2022-10-19T18:03:12;99.95;;;46.55;;
35562;SDS011;21665;40.108;18.302;2022-10-19T18:05:40;86.47;;;45.95;;
35562;SDS011;21665;40.108;18.302;2022-10-19T18:14:38;95.60;;;47.10;;
35562;SDS011;21665;40.108;18.302;2022-10-19T18:39:54;107.82;;;49.10;;
35562;SDS011;21665;40.108;18.302;2022-10-19T19:25:38;108.68;;;48.10;;
